sensor_id;sensor_type;location;lat;lon;timestamp;pressure;altitude;pressure_sealevel;temperature;humidity
37824;BME280;23667;43.246;26.576;2022-07-06T00:01:21;99302.94;;;17.05;100.00
37824;BME280;23667;43.246;26.576;2022-07-06T00:03:47;99303.28;;;16.99;100.00
37824;BME280;23667;43.246;26.576;2022-07-06T00:06:13;99306.47;;;16.90;100.00
37824;BME280;23667;43.246;26.576;2022-07-06T00:08:39;99312.00;;;16.86;100.00
37824;BME280;23667;43.246;26.576;2022-07-06T00:11:05;99300.97;;;16.79;100.00
37824;BME280;23667;43.246;26.576;2022-07-06T00:13:31;99302.84;;;16.77;100.00
37824;BME280;23667;43.246;26.576;2022-07-06T00:15:56;99298.34;;;16.79;100.00
37824;BME280;23667;43.246;26.576;2022-07-06T00:18:22;99304.31;;;16.67;100.00
37824;BME280;23667;43.246;26.576;2022-07-06T00:20:47;99296.75;;;16.60;100.00
37824;BME280;23667;43.246;26.576;2022-07-06T00:23:13;99308.13;;;16.61;100.00
37824;BME280;23667;43.246;26.576;2022-07-06T00:25:38;99311.78;;;16.74;100.00
37824;BME280;23667;43.246;26.576;2022-07-06T00:28:04;99316.97;;;16.76;100.00
37824;BME280;23667;43.246;26.576;2022-07-06T00:30:30;99309.00;;;16.77;100.00
37824;BME280;23667;43.246;26.576;2022-07-06T00:32:55;99309.56;;;16.67;100.00
37824;BME280;23667;43.246;26.576;2022-07-06T00:35:23;99318.00;;;16.57;100.00
37824;BME280;23667;43.246;26.576;2022-07-06T00:37:49;99309.78;;;16.48;100.00
37824;BME280;23667;43.246;26.576;2022-07-06T00:40:15;99305.25;;;16.50;100.00
37824;BME280;23667;43.246;26.576;2022-07-06T00:42:45;99309.69;;;16.49;100.00
37824;BME280;23667;43.246;26.576;2022-07-06T00:45:13;99301.72;;;16.35;100.00
37824;BME280;23667;43.246;26.576;2022-07-06T00:47:39;99311.16;;;16.23;100.00
37824;BME280;23667;43.246;26.576;2022-07-06T00:50:08;99316.69;;;16.19;100.00
37824;BME280;23667;43.246;26.576;2022-07-06T00:53:05;99316.34;;;16.25;100.00
37824;BME280;23667;43.246;26.576;2022-07-06T00:55:34;99308.63;;;16.22;100.00
37824;BME280;23667;43.246;26.576;2022-07-06T00:58:04;99302.63;;;16.50;100.00
37824;BME280;23667;43.246;26.576;2022-07-06T01:00:30;99300.69;;;16.53;100.00
37824;BME280;23667;43.246;26.576;2022-07-06T01:02:56;99298.06;;;16.37;100.00
37824;BME280;23667;43.246;26.576;2022-07-06T01:05:22;99302.84;;;16.31;100.00
37824;BME280;23667;43.246;26.576;2022-07-06T01:07:51;99308.53;;;16.07;100.00
37824;BME280;23667;43.246;26.576;2022-07-06T01:10:17;99324.06;;;15.96;100.00
37824;BME280;23667;43.246;26.576;2022-07-06T01:12:45;99325.44;;;16.03;100.00
37824;BME280;23667;43.246;26.576;2022-07-06T01:15:17;99332.38;;;16.04;100.00
37824;BME280;23667;43.246;26.576;2022-07-06T01:17:43;99333.84;;;16.10;100.00
37824;BME280;23667;43.246;26.576;2022-07-06T01:20:16;99344.09;;;16.14;100.00
37824;BME280;23667;43.246;26.576;2022-07-06T01:22:46;99348.66;;;16.11;100.00
37824;BME280;23667;43.246;26.576;2022-07-06T01:25:13;99343.16;;;16.15;100.00
37824;BME280;23667;43.246;26.576;2022-07-06T01:27:40;99340.44;;;16.17;100.00
37824;BME280;23667;43.246;26.576;2022-07-06T01:30:08;99322.97;;;16.16;100.00
37824;BME280;23667;43.246;26.576;2022-07-06T01:32:36;99322.22;;;16.30;100.00
37824;BME280;23667;43.246;26.576;2022-07-06T01:35:03;99318.34;;;16.35;100.00
37824;BME280;23667;43.246;26.576;2022-07-06T01:37:30;99312.78;;;16.42;100.00
37824;BME280;23667;43.246;26.576;2022-07-06T01:39:59;99294.25;;;16.43;100.00
37824;BME280;23667;43.246;26.576;2022-07-06T01:42:25;99304.53;;;16.48;100.00
37824;BME280;23667;43.246;26.576;2022-07-06T01:44:51;99306.97;;;16.51;100.00
37824;BME280;23667;43.246;26.576;2022-07-06T01:47:16;99304.47;;;16.64;100.00
37824;BME280;23667;43.246;26.576;2022-07-06T01:49:42;99292.16;;;16.64;100.00
37824;BME280;23667;43.246;26.576;2022-07-06T01:52:07;99301.75;;;16.65;100.00
37824;BME280;23667;43.246;26.576;2022-07-06T01:54:33;99300.81;;;16.66;100.00
37824;BME280;23667;43.246;26.576;2022-07-06T01:56:59;99290.00;;;16.71;100.00
37824;BME280;23667;43.246;26.576;2022-07-06T01:59:24;99295.91;;;16.76;100.00
37824;BME280;23667;43.246;26.576;2022-07-06T02:01:50;99298.38;;;16.63;100.00
37824;BME280;23667;43.246;26.576;2022-07-06T02:04:15;99296.00;;;16.58;100.00
37824;BME280;23667;43.246;26.576;2022-07-06T02:06:41;99299.41;;;16.60;100.00
37824;BME280;23667;43.246;26.576;2022-07-06T02:09:07;99298.00;;;16.69;100.00
37824;BME280;23667;43.246;26.576;2022-07-06T02:11:32;99289.69;;;16.77;100.00
37824;BME280;23667;43.246;26.576;2022-07-06T02:13:58;99294.19;;;16.59;100.00
37824;BME280;23667;43.246;26.576;2022-07-06T02:16:23;99290.56;;;16.61;100.00
37824;BME280;23667;43.246;26.576;2022-07-06T02:18:49;99293.59;;;16.70;100.00
37824;BME280;23667;43.246;26.576;2022-07-06T02:21:15;99278.97;;;16.80;100.00
37824;BME280;23667;43.246;26.576;2022-07-06T02:23:41;99279.22;;;17.05;100.00
37824;BME280;23667;43.246;26.576;2022-07-06T02:26:06;99274.81;;;17.20;100.00
37824;BME280;23667;43.246;26.576;2022-07-06T02:28:32;99272.25;;;17.33;100.00
37824;BME280;23667;43.246;26.576;2022-07-06T02:30:59;99276.13;;;17.42;100.00
37824;BME280;23667;43.246;26.576;2022-07-06T02:33:24;99276.63;;;17.48;100.00
37824;BME280;23667;43.246;26.576;2022-07-06T02:35:50;99278.03;;;17.54;100.00
37824;BME280;23667;43.246;26.576;2022-07-06T02:38:16;99281.41;;;17.56;100.00
37824;BME280;23667;43.246;26.576;2022-07-06T02:40:41;99283.56;;;17.64;100.00
37824;BME280;23667;43.246;26.576;2022-07-06T02:43:07;99292.06;;;17.69;100.00
37824;BME280;23667;43.246;26.576;2022-07-06T02:45:32;99289.50;;;17.67;100.00
37824;BME280;23667;43.246;26.576;2022-07-06T02:47:58;99287.91;;;17.79;100.00
37824;BME280;23667;43.246;26.576;2022-07-06T02:50:24;99286.75;;;17.83;100.00
37824;BME280;23667;43.246;26.576;2022-07-06T02:52:50;99288.28;;;17.87;100.00
37824;BME280;23667;43.246;26.576;2022-07-06T02:55:16;99293.56;;;17.87;100.00
37824;BME280;23667;43.246;26.576;2022-07-06T02:57:42;99300.25;;;17.93;100.00
37824;BME280;23667;43.246;26.576;2022-07-06T03:00:08;99297.41;;;17.96;100.00
37824;BME280;23667;43.246;26.576;2022-07-06T03:02:35;99303.81;;;17.92;100.00
37824;BME280;23667;43.246;26.576;2022-07-06T03:05:01;99294.22;;;17.91;100.00
37824;BME280;23667;43.246;26.576;2022-07-06T03:07:27;99301.34;;;18.03;100.00
37824;BME280;23667;43.246;26.576;2022-07-06T03:09:52;99295.22;;;18.03;100.00
37824;BME280;23667;43.246;26.576;2022-07-06T03:12:18;99291.34;;;18.08;100.00
37824;BME280;23667;43.246;26.576;2022-07-06T03:14:43;99303.56;;;18.24;100.00
37824;BME280;23667;43.246;26.576;2022-07-06T03:17:09;99305.59;;;18.33;100.00
37824;BME280;23667;43.246;26.576;2022-07-06T03:19:35;99309.16;;;18.46;100.00
37824;BME280;23667;43.246;26.576;2022-07-06T03:22:01;99307.03;;;18.51;100.00
37824;BME280;23667;43.246;26.576;2022-07-06T03:24:26;99312.22;;;18.53;100.00
37824;BME280;23667;43.246;26.576;2022-07-06T03:26:52;99304.94;;;18.56;100.00
37824;BME280;23667;43.246;26.576;2022-07-06T03:29:17;99310.47;;;18.66;100.00
37824;BME280;23667;43.246;26.576;2022-07-06T03:31:43;99300.81;;;18.79;100.00
37824;BME280;23667;43.246;26.576;2022-07-06T03:34:08;99305.06;;;18.82;100.00
37824;BME280;23667;43.246;26.576;2022-07-06T03:36:34;99307.38;;;18.86;100.00
37824;BME280;23667;43.246;26.576;2022-07-06T03:39:00;99307.28;;;18.88;100.00
37824;BME280;23667;43.246;26.576;2022-07-06T03:41:26;99310.69;;;19.03;100.00
37824;BME280;23667;43.246;26.576;2022-07-06T03:43:51;99307.84;;;19.06;100.00
37824;BME280;23667;43.246;26.576;2022-07-06T03:46:17;99305.53;;;19.14;100.00
37824;BME280;23667;43.246;26.576;2022-07-06T03:48:42;99304.25;;;19.20;100.00
37824;BME280;23667;43.246;26.576;2022-07-06T03:51:08;99307.66;;;19.35;100.00
37824;BME280;23667;43.246;26.576;2022-07-06T03:53:35;99296.31;;;19.32;100.00
37824;BME280;23667;43.246;26.576;2022-07-06T03:56:01;99312.38;;;19.42;100.00
37824;BME280;23667;43.246;26.576;2022-07-06T03:58:44;99307.63;;;19.47;100.00
37824;BME280;23667;43.246;26.576;2022-07-06T04:01:10;99305.81;;;19.61;100.00
37824;BME280;23667;43.246;26.576;2022-07-06T04:03:36;99296.75;;;19.65;100.00
37824;BME280;23667;43.246;26.576;2022-07-06T04:06:01;99298.34;;;19.67;100.00
37824;BME280;23667;43.246;26.576;2022-07-06T04:08:27;99300.56;;;19.73;100.00
37824;BME280;23667;43.246;26.576;2022-07-06T04:10:52;99288.88;;;19.89;100.00
37824;BME280;23667;43.246;26.576;2022-07-06T04:13:18;99285.91;;;19.81;100.00
37824;BME280;23667;43.246;26.576;2022-07-06T04:15:43;99287.72;;;19.80;100.00
37824;BME280;23667;43.246;26.576;2022-07-06T04:18:09;99282.41;;;19.93;100.00
37824;BME280;23667;43.246;26.576;2022-07-06T04:20:34;99287.28;;;19.86;100.00
37824;BME280;23667;43.246;26.576;2022-07-06T04:23:00;99291.38;;;19.90;100.00
37824;BME280;23667;43.246;26.576;2022-07-06T04:25:26;99290.00;;;19.97;100.00
37824;BME280;23667;43.246;26.576;2022-07-06T04:27:51;99285.13;;;20.04;100.00
37824;BME280;23667;43.246;26.576;2022-07-06T04:30:17;99278.41;;;20.11;100.00
37824;BME280;23667;43.246;26.576;2022-07-06T04:32:42;99275.34;;;20.17;100.00
37824;BME280;23667;43.246;26.576;2022-07-06T04:35:08;99270.31;;;20.26;100.00
37824;BME280;23667;43.246;26.576;2022-07-06T04:37:35;99277.94;;;20.30;100.00
37824;BME280;23667;43.246;26.576;2022-07-06T04:40:01;99274.81;;;20.36;100.00
37824;BME280;23667;43.246;26.576;2022-07-06T04:42:26;99269.59;;;20.48;100.00
37824;BME280;23667;43.246;26.576;2022-07-06T04:44:52;99265.81;;;20.63;100.00
37824;BME280;23667;43.246;26.576;2022-07-06T04:47:18;99262.13;;;20.88;100.00
37824;BME280;23667;43.246;26.576;2022-07-06T04:49:43;99259.31;;;21.25;100.00
37824;BME280;23667;43.246;26.576;2022-07-06T04:52:09;99239.47;;;23.04;100.00
37824;BME280;23667;43.246;26.576;2022-07-06T04:54:34;99222.19;;;25.35;100.00
37824;BME280;23667;43.246;26.576;2022-07-06T04:57:00;99218.31;;;27.95;100.00
37824;BME280;23667;43.246;26.576;2022-07-06T04:59:25;99227.28;;;30.28;100.00
37824;BME280;23667;43.246;26.576;2022-07-06T05:01:51;99229.94;;;29.01;100.00
37824;BME280;23667;43.246;26.576;2022-07-06T05:04:17;99232.50;;;30.29;100.00
37824;BME280;23667;43.246;26.576;2022-07-06T05:06:45;99217.22;;;31.35;100.00
37824;BME280;23667;43.246;26.576;2022-07-06T05:09:11;99223.16;;;31.75;98.70
37824;BME280;23667;43.246;26.576;2022-07-06T05:11:37;99217.44;;;32.00;91.59
37824;BME280;23667;43.246;26.576;2022-07-06T05:14:03;99216.59;;;32.21;87.28
37824;BME280;23667;43.246;26.576;2022-07-06T05:16:28;99215.31;;;33.09;84.77
37824;BME280;23667;43.246;26.576;2022-07-06T05:18:54;99220.09;;;33.42;80.55
37824;BME280;23667;43.246;26.576;2022-07-06T05:21:19;99217.53;;;33.75;78.09
37824;BME280;23667;43.246;26.576;2022-07-06T05:23:45;99215.63;;;32.93;79.73
37824;BME280;23667;43.246;26.576;2022-07-06T05:26:10;99212.75;;;35.18;74.97
37824;BME280;23667;43.246;26.576;2022-07-06T05:28:36;99218.84;;;34.67;71.87
37824;BME280;23667;43.246;26.576;2022-07-06T05:31:02;99216.53;;;34.64;72.28
37824;BME280;23667;43.246;26.576;2022-07-06T05:33:27;99218.59;;;35.80;68.18
37824;BME280;23667;43.246;26.576;2022-07-06T05:35:53;99214.63;;;34.84;70.99
37824;BME280;23667;43.246;26.576;2022-07-06T05:38:18;99227.19;;;35.77;67.27
37824;BME280;23667;43.246;26.576;2022-07-06T05:40:44;99225.13;;;35.52;68.20
37824;BME280;23667;43.246;26.576;2022-07-06T05:43:10;99212.72;;;36.28;65.11
37824;BME280;23667;43.246;26.576;2022-07-06T05:45:37;99215.50;;;35.76;66.00
37824;BME280;23667;43.246;26.576;2022-07-06T05:48:03;99220.41;;;37.50;61.50
37824;BME280;23667;43.246;26.576;2022-07-06T05:50:46;99224.81;;;36.82;62.10
37824;BME280;23667;43.246;26.576;2022-07-06T05:53:12;99219.91;;;35.71;66.40
37824;BME280;23667;43.246;26.576;2022-07-06T05:55:38;99229.03;;;37.47;62.90
37824;BME280;23667;43.246;26.576;2022-07-06T05:58:04;99226.31;;;39.90;54.42
37824;BME280;23667;43.246;26.576;2022-07-06T06:00:30;99227.41;;;37.94;56.26
37824;BME280;23667;43.246;26.576;2022-07-06T06:02:56;99221.31;;;36.50;61.27
37824;BME280;23667;43.246;26.576;2022-07-06T06:05:23;99217.38;;;36.21;61.29
37824;BME280;23667;43.246;26.576;2022-07-06T06:07:48;99219.00;;;36.22;64.29
37824;BME280;23667;43.246;26.576;2022-07-06T06:10:17;99221.22;;;37.32;60.05
37824;BME280;23667;43.246;26.576;2022-07-06T06:12:43;99222.63;;;36.98;60.05
37824;BME280;23667;43.246;26.576;2022-07-06T06:15:10;99215.84;;;33.61;71.99
37824;BME280;23667;43.246;26.576;2022-07-06T06:17:36;99208.31;;;35.37;68.72
37824;BME280;23667;43.246;26.576;2022-07-06T06:20:04;99213.94;;;35.56;68.22
37824;BME280;23667;43.246;26.576;2022-07-06T06:22:54;99221.94;;;35.17;69.38
37824;BME280;23667;43.246;26.576;2022-07-06T06:25:27;99218.84;;;38.63;61.67
37824;BME280;23667;43.246;26.576;2022-07-06T06:27:53;99217.59;;;41.40;52.17
37824;BME280;23667;43.246;26.576;2022-07-06T06:30:18;99211.31;;;41.40;50.29
37824;BME280;23667;43.246;26.576;2022-07-06T06:32:44;99220.34;;;39.76;52.17
37824;BME280;23667;43.246;26.576;2022-07-06T06:35:09;99217.53;;;40.45;51.91
37824;BME280;23667;43.246;26.576;2022-07-06T06:37:35;99213.88;;;42.49;48.38
37824;BME280;23667;43.246;26.576;2022-07-06T06:40:02;99223.31;;;44.42;44.30
37824;BME280;23667;43.246;26.576;2022-07-06T06:42:28;99215.22;;;43.16;45.15
37824;BME280;23667;43.246;26.576;2022-07-06T06:44:53;99214.59;;;38.55;53.55
37824;BME280;23667;43.246;26.576;2022-07-06T06:47:19;99207.53;;;39.77;51.93
37824;BME280;23667;43.246;26.576;2022-07-06T06:49:45;99201.44;;;40.49;51.19
37824;BME280;23667;43.246;26.576;2022-07-06T06:52:11;99214.06;;;40.84;49.25
37824;BME280;23667;43.246;26.576;2022-07-06T06:54:36;99212.91;;;41.57;48.09
37824;BME280;23667;43.246;26.576;2022-07-06T06:57:02;99206.66;;;42.11;46.34
37824;BME280;23667;43.246;26.576;2022-07-06T06:59:28;99208.59;;;40.84;47.67
37824;BME280;23667;43.246;26.576;2022-07-06T07:01:53;99214.31;;;38.45;52.82
37824;BME280;23667;43.246;26.576;2022-07-06T07:04:19;99218.81;;;37.79;57.33
37824;BME280;23667;43.246;26.576;2022-07-06T07:06:44;99213.81;;;40.06;53.27
37824;BME280;23667;43.246;26.576;2022-07-06T07:09:10;99216.38;;;41.48;49.89
37824;BME280;23667;43.246;26.576;2022-07-06T07:11:35;99212.47;;;41.66;49.01
37824;BME280;23667;43.246;26.576;2022-07-06T07:14:01;99209.19;;;41.91;47.98
37824;BME280;23667;43.246;26.576;2022-07-06T07:16:27;99211.03;;;43.56;45.90
37824;BME280;23667;43.246;26.576;2022-07-06T07:18:53;99208.34;;;43.82;44.25
37824;BME280;23667;43.246;26.576;2022-07-06T07:21:18;99216.69;;;40.96;47.36
37824;BME280;23667;43.246;26.576;2022-07-06T07:23:44;99221.09;;;42.28;46.34
37824;BME280;23667;43.246;26.576;2022-07-06T07:26:10;99215.34;;;41.54;46.14
37824;BME280;23667;43.246;26.576;2022-07-06T07:28:35;99219.38;;;42.82;45.04
37824;BME280;23667;43.246;26.576;2022-07-06T07:31:01;99224.72;;;42.34;45.13
37824;BME280;23667;43.246;26.576;2022-07-06T07:33:28;99220.84;;;44.41;42.66
37824;BME280;23667;43.246;26.576;2022-07-06T07:35:56;99225.44;;;41.75;44.57
37824;BME280;23667;43.246;26.576;2022-07-06T07:38:21;99224.41;;;41.81;44.93
37824;BME280;23667;43.246;26.576;2022-07-06T07:40:47;99220.38;;;42.11;44.33
37824;BME280;23667;43.246;26.576;2022-07-06T07:43:13;99224.84;;;43.82;42.03
37824;BME280;23667;43.246;26.576;2022-07-06T07:45:40;99218.06;;;44.05;41.12
37824;BME280;23667;43.246;26.576;2022-07-06T07:48:08;99217.06;;;41.60;42.70
37824;BME280;23667;43.246;26.576;2022-07-06T07:50:34;99210.34;;;39.06;48.65
37824;BME280;23667;43.246;26.576;2022-07-06T07:53:00;99214.13;;;40.55;47.00
37824;BME280;23667;43.246;26.576;2022-07-06T07:55:26;99215.38;;;42.67;43.30
37824;BME280;23667;43.246;26.576;2022-07-06T07:57:51;99218.13;;;43.52;41.44
37824;BME280;23667;43.246;26.576;2022-07-06T08:00:17;99214.66;;;45.41;38.68
37824;BME280;23667;43.246;26.576;2022-07-06T08:02:43;99213.25;;;41.22;43.44
37824;BME280;23667;43.246;26.576;2022-07-06T08:05:08;99212.03;;;44.28;40.72
37824;BME280;23667;43.246;26.576;2022-07-06T08:07:38;99217.13;;;43.79;40.09
37824;BME280;23667;43.246;26.576;2022-07-06T08:10:04;99211.50;;;44.47;38.84
37824;BME280;23667;43.246;26.576;2022-07-06T08:12:29;99220.31;;;44.44;38.50
37824;BME280;23667;43.246;26.576;2022-07-06T08:14:55;99214.25;;;43.01;40.81
37824;BME280;23667;43.246;26.576;2022-07-06T08:17:21;99213.16;;;45.64;37.70
37824;BME280;23667;43.246;26.576;2022-07-06T08:19:46;99221.47;;;43.12;39.88
37824;BME280;23667;43.246;26.576;2022-07-06T08:22:12;99216.97;;;44.26;38.28
37824;BME280;23667;43.246;26.576;2022-07-06T08:24:37;99205.69;;;44.28;37.89
37824;BME280;23667;43.246;26.576;2022-07-06T08:27:03;99208.34;;;45.25;37.72
37824;BME280;23667;43.246;26.576;2022-07-06T08:29:30;99202.63;;;47.99;34.62
37824;BME280;23667;43.246;26.576;2022-07-06T08:31:58;99208.13;;;46.60;35.13
37824;BME280;23667;43.246;26.576;2022-07-06T08:34:26;99200.25;;;47.07;34.52
37824;BME280;23667;43.246;26.576;2022-07-06T08:36:54;99206.63;;;47.26;33.60
37824;BME280;23667;43.246;26.576;2022-07-06T08:39:20;99204.41;;;45.52;34.68
37824;BME280;23667;43.246;26.576;2022-07-06T08:41:47;99195.81;;;44.78;35.60
37824;BME280;23667;43.246;26.576;2022-07-06T08:44:16;99188.56;;;43.70;36.45
37824;BME280;23667;43.246;26.576;2022-07-06T08:46:46;99185.06;;;40.32;40.46
37824;BME280;23667;43.246;26.576;2022-07-06T08:49:25;99191.59;;;41.59;39.15
37824;BME280;23667;43.246;26.576;2022-07-06T08:51:52;99188.34;;;40.17;41.33
37824;BME280;23667;43.246;26.576;2022-07-06T08:54:24;99196.03;;;41.66;38.87
37824;BME280;23667;43.246;26.576;2022-07-06T08:56:51;99195.00;;;40.72;38.32
37824;BME280;23667;43.246;26.576;2022-07-06T08:59:17;99198.66;;;40.78;37.96
37824;BME280;23667;43.246;26.576;2022-07-06T09:01:49;99185.84;;;41.39;37.84
37824;BME280;23667;43.246;26.576;2022-07-06T09:04:19;99191.78;;;41.53;38.04
37824;BME280;23667;43.246;26.576;2022-07-06T09:06:47;99184.59;;;37.34;43.16
37824;BME280;23667;43.246;26.576;2022-07-06T09:09:19;99171.56;;;35.54;47.51
37824;BME280;23667;43.246;26.576;2022-07-06T09:11:45;99182.53;;;34.22;51.76
37824;BME280;23667;43.246;26.576;2022-07-06T09:14:11;99192.22;;;33.41;55.53
37824;BME280;23667;43.246;26.576;2022-07-06T09:16:37;99178.78;;;32.57;54.91
37824;BME280;23667;43.246;26.576;2022-07-06T09:19:03;99177.44;;;32.46;56.84
37824;BME280;23667;43.246;26.576;2022-07-06T09:21:34;99182.28;;;32.79;57.19
37824;BME280;23667;43.246;26.576;2022-07-06T09:24:09;99184.22;;;33.20;59.17
37824;BME280;23667;43.246;26.576;2022-07-06T09:26:35;99182.59;;;33.67;57.26
37824;BME280;23667;43.246;26.576;2022-07-06T09:29:01;99182.22;;;33.83;57.40
37824;BME280;23667;43.246;26.576;2022-07-06T09:31:28;99183.25;;;33.82;54.67
37824;BME280;23667;43.246;26.576;2022-07-06T09:34:05;99176.25;;;30.95;63.70
37824;BME280;23667;43.246;26.576;2022-07-06T09:36:48;99165.56;;;32.19;60.88
37824;BME280;23667;43.246;26.576;2022-07-06T09:39:24;99170.28;;;32.38;59.45
37824;BME280;23667;43.246;26.576;2022-07-06T09:41:52;99166.34;;;32.13;59.57
37824;BME280;23667;43.246;26.576;2022-07-06T09:44:21;99172.81;;;32.40;58.16
37824;BME280;23667;43.246;26.576;2022-07-06T09:46:48;99167.03;;;32.22;59.20
37824;BME280;23667;43.246;26.576;2022-07-06T09:49:19;99173.63;;;32.40;61.90
37824;BME280;23667;43.246;26.576;2022-07-06T09:51:49;99170.78;;;31.84;59.73
37824;BME280;23667;43.246;26.576;2022-07-06T09:54:16;99172.34;;;31.93;62.72
37824;BME280;23667;43.246;26.576;2022-07-06T09:56:45;99163.69;;;31.98;65.48
37824;BME280;23667;43.246;26.576;2022-07-06T09:59:22;99158.03;;;32.14;65.76
37824;BME280;23667;43.246;26.576;2022-07-06T10:01:51;99161.28;;;31.08;63.98
37824;BME280;23667;43.246;26.576;2022-07-06T10:04:17;99167.06;;;30.90;66.59
37824;BME280;23667;43.246;26.576;2022-07-06T10:06:46;99169.81;;;30.44;68.86
37824;BME280;23667;43.246;26.576;2022-07-06T10:09:12;99166.75;;;29.38;78.18
37824;BME280;23667;43.246;26.576;2022-07-06T10:11:50;99163.31;;;29.13;90.27
37824;BME280;23667;43.246;26.576;2022-07-06T10:14:26;99156.41;;;29.58;87.71
37824;BME280;23667;43.246;26.576;2022-07-06T10:16:55;99151.38;;;29.63;85.15
37824;BME280;23667;43.246;26.576;2022-07-06T10:19:22;99144.13;;;29.95;82.66
37824;BME280;23667;43.246;26.576;2022-07-06T10:22:02;99151.09;;;30.04;82.25
37824;BME280;23667;43.246;26.576;2022-07-06T10:24:29;99148.13;;;30.22;81.52
37824;BME280;23667;43.246;26.576;2022-07-06T10:26:55;99158.78;;;29.84;81.47
37824;BME280;23667;43.246;26.576;2022-07-06T10:29:21;99152.28;;;30.02;83.88
37824;BME280;23667;43.246;26.576;2022-07-06T10:31:48;99157.16;;;30.06;82.88
37824;BME280;23667;43.246;26.576;2022-07-06T10:34:15;99148.91;;;30.31;79.60
37824;BME280;23667;43.246;26.576;2022-07-06T10:36:47;99154.69;;;30.80;74.18
37824;BME280;23667;43.246;26.576;2022-07-06T10:39:13;99150.97;;;31.26;71.64
37824;BME280;23667;43.246;26.576;2022-07-06T10:41:57;99149.59;;;31.81;69.50
37824;BME280;23667;43.246;26.576;2022-07-06T10:44:27;99147.47;;;32.41;67.06
37824;BME280;23667;43.246;26.576;2022-07-06T10:46:56;99140.56;;;32.88;66.71
37824;BME280;23667;43.246;26.576;2022-07-06T10:51:50;99134.50;;;33.07;63.48
37824;BME280;23667;43.246;26.576;2022-07-06T10:54:22;99132.88;;;33.74;61.99
37824;BME280;23667;43.246;26.576;2022-07-06T10:56:52;99141.50;;;33.43;59.11
37824;BME280;23667;43.246;26.576;2022-07-06T10:59:22;99137.31;;;33.34;59.98
37824;BME280;23667;43.246;26.576;2022-07-06T11:04:35;99126.09;;;34.72;55.18
37824;BME280;23667;43.246;26.576;2022-07-06T11:07:15;99121.31;;;34.54;55.73
37824;BME280;23667;43.246;26.576;2022-07-06T11:09:41;99123.75;;;33.95;57.13
37824;BME280;23667;43.246;26.576;2022-07-06T11:12:17;99121.47;;;33.86;56.89
37824;BME280;23667;43.246;26.576;2022-07-06T11:14:44;99123.34;;;33.79;56.06
37824;BME280;23667;43.246;26.576;2022-07-06T11:17:12;99119.22;;;32.93;58.50
37824;BME280;23667;43.246;26.576;2022-07-06T11:19:38;99120.63;;;31.68;59.71
37824;BME280;23667;43.246;26.576;2022-07-06T11:22:08;99107.03;;;31.40;56.84
37824;BME280;23667;43.246;26.576;2022-07-06T11:24:37;99115.56;;;31.29;57.61
37824;BME280;23667;43.246;26.576;2022-07-06T11:27:03;99112.50;;;31.47;57.21
37824;BME280;23667;43.246;26.576;2022-07-06T11:29:33;99108.88;;;31.55;60.49
37824;BME280;23667;43.246;26.576;2022-07-06T11:32:05;99103.03;;;31.51;63.67
37824;BME280;23667;43.246;26.576;2022-07-06T11:34:36;99100.47;;;31.64;62.77
37824;BME280;23667;43.246;26.576;2022-07-06T11:37:06;99092.91;;;31.75;60.35
37824;BME280;23667;43.246;26.576;2022-07-06T11:39:37;99091.28;;;31.95;59.59
37824;BME280;23667;43.246;26.576;2022-07-06T11:42:06;99090.47;;;32.23;60.78
37824;BME280;23667;43.246;26.576;2022-07-06T11:44:33;99083.81;;;32.18;61.86
37824;BME280;23667;43.246;26.576;2022-07-06T11:46:58;99077.66;;;32.31;62.13
37824;BME280;23667;43.246;26.576;2022-07-06T11:49:27;99083.00;;;31.82;59.56
37824;BME280;23667;43.246;26.576;2022-07-06T11:51:52;99084.00;;;31.74;59.17
37824;BME280;23667;43.246;26.576;2022-07-06T11:54:20;99075.38;;;31.85;60.77
37824;BME280;23667;43.246;26.576;2022-07-06T11:56:48;99074.66;;;31.77;60.34
37824;BME280;23667;43.246;26.576;2022-07-06T11:59:15;99073.66;;;31.78;59.36
37824;BME280;23667;43.246;26.576;2022-07-06T12:01:41;99067.94;;;31.87;56.21
37824;BME280;23667;43.246;26.576;2022-07-06T12:04:10;99069.44;;;32.18;55.80
37824;BME280;23667;43.246;26.576;2022-07-06T12:06:36;99073.34;;;32.37;56.00
37824;BME280;23667;43.246;26.576;2022-07-06T12:09:02;99060.34;;;32.19;55.42
37824;BME280;23667;43.246;26.576;2022-07-06T12:11:32;99055.38;;;32.23;55.84
37824;BME280;23667;43.246;26.576;2022-07-06T12:14:11;99059.25;;;32.41;57.77
37824;BME280;23667;43.246;26.576;2022-07-06T12:16:38;99067.31;;;32.63;58.54
37824;BME280;23667;43.246;26.576;2022-07-06T12:19:05;99057.81;;;32.39;59.33
37824;BME280;23667;43.246;26.576;2022-07-06T12:21:31;99061.00;;;32.49;58.32
37824;BME280;23667;43.246;26.576;2022-07-06T12:23:57;99050.09;;;32.99;58.24
37824;BME280;23667;43.246;26.576;2022-07-06T12:26:25;99053.56;;;32.93;59.66
37824;BME280;23667;43.246;26.576;2022-07-06T12:29:05;99049.38;;;32.83;59.56
37824;BME280;23667;43.246;26.576;2022-07-06T12:31:37;99051.06;;;32.56;60.75
37824;BME280;23667;43.246;26.576;2022-07-06T12:34:04;99050.59;;;32.81;61.03
37824;BME280;23667;43.246;26.576;2022-07-06T12:36:31;99053.03;;;32.69;59.83
37824;BME280;23667;43.246;26.576;2022-07-06T12:38:57;99053.03;;;32.69;60.35
37824;BME280;23667;43.246;26.576;2022-07-06T12:41:32;99043.91;;;32.77;59.40
37824;BME280;23667;43.246;26.576;2022-07-06T12:44:09;99036.88;;;33.24;57.94
37824;BME280;23667;43.246;26.576;2022-07-06T12:46:39;99041.66;;;33.28;57.22
37824;BME280;23667;43.246;26.576;2022-07-06T12:49:23;99039.06;;;33.95;55.98
37824;BME280;23667;43.246;26.576;2022-07-06T12:54:20;99042.94;;;32.84;58.93